Spokane, Missouri
Current Conditions -  °F | °C
As of 8:15 AM on Sunday 25 Jan 2015 (Local Time) from KFWB Reporting Station
Broken Clouds Broken Clouds  
Wind Chill: 41°   Ceiling: 5000
Heat Index: 46°   Visibility: 10mi
Dew Point: 36°   Wind: 12mph
Humidity: 66%   Direction: 280°W
Pressure: 29.7"   Gusts: 25mph
Location:  36.87°N, 93.3°W
Report Text: KFWB 251415Z AUTO 28010G22KT 240V310 10SM FEW032 SCT048 BKN050 08/02 A2970 RMK AO2
Loading
Personal Weather Stations






























Interactive Weather Map New forecast layout! Learn more

10-Day Weather Forecast

Advertisements
Track Severe Weather on mobile